createdAt,value
2023-01-13T00:06:22.527Z,8.22
2023-01-13T00:08:50.641Z,8.33
2023-01-13T00:11:19.392Z,8.30
2023-01-13T00:13:46.265Z,8.39
2023-01-13T00:16:16.502Z,8.47
2023-01-13T00:18:44.018Z,8.33
2023-01-13T00:21:23.237Z,8.50
2023-01-13T00:23:54.958Z,8.44
2023-01-13T00:26:28.508Z,8.54
2023-01-13T00:28:59.356Z,8.24
2023-01-13T00:31:27.735Z,8.36
2023-01-13T00:34:08.053Z,8.39
2023-01-13T00:36:34.961Z,8.32
2023-01-13T00:39:04.013Z,8.40
2023-01-13T00:41:50.632Z,8.22
2023-01-13T00:44:17.593Z,8.30
2023-01-13T00:46:44.327Z,8.37
2023-01-13T00:49:14.144Z,8.54
2023-01-13T00:51:41.187Z,8.09
2023-01-13T00:54:08.147Z,8.27
2023-01-13T00:56:40.066Z,8.43
2023-01-13T00:59:14.220Z,8.48
2023-01-13T01:01:41.580Z,8.34
2023-01-13T01:04:13.688Z,8.17
2023-01-13T01:06:44.404Z,8.13
2023-01-13T01:09:15.279Z,8.34
2023-01-13T01:11:42.514Z,8.47
2023-01-13T01:14:14.951Z,8.33
2023-01-13T01:16:50.362Z,8.42
2023-01-13T01:19:21.335Z,8.31
2023-01-13T01:21:48.209Z,8.23
2023-01-13T01:24:16.669Z,8.66
2023-01-13T01:26:43.548Z,8.37
2023-01-13T01:29:14.074Z,8.36
2023-01-13T01:31:40.805Z,8.31
2023-01-13T01:36:56.613Z,8.23
2023-01-13T01:39:23.603Z,8.43
2023-01-13T01:42:13.514Z,8.36
2023-01-13T01:44:43.302Z,8.59
2023-01-13T01:47:14.700Z,8.43
2023-01-13T01:49:43.217Z,8.37
2023-01-13T01:52:16.550Z,8.61
2023-01-13T01:54:51.113Z,8.53
2023-01-13T01:57:23.572Z,8.64
2023-01-13T01:59:51.089Z,8.51
2023-01-13T02:02:19.558Z,8.43
2023-01-13T02:04:51.709Z,8.45
2023-01-13T02:07:22.960Z,8.85
2023-01-13T02:09:52.352Z,8.59
2023-01-13T02:12:32.085Z,8.56
2023-01-13T02:15:04.297Z,8.60
2023-01-13T02:18:05.694Z,8.66
2023-01-13T02:21:02.778Z,8.70
2023-01-13T02:24:25.450Z,8.65
2023-01-13T02:27:27.792Z,8.74
2023-01-13T02:30:46.650Z,8.65
2023-01-13T02:33:32.777Z,8.27
2023-01-13T02:36:23.751Z,8.48
2023-01-13T02:38:59.101Z,8.31
2023-01-13T02:42:05.584Z,8.39
2023-01-13T02:44:45.200Z,8.28
2023-01-13T02:47:22.706Z,8.46
2023-01-13T02:49:53.186Z,8.38
2023-01-13T02:52:31.093Z,8.57
2023-01-13T02:55:03.952Z,8.59
2023-01-13T02:57:35.556Z,8.47
2023-01-13T03:00:06.116Z,8.49
2023-01-13T03:02:32.944Z,8.66
2023-01-13T03:05:00.589Z,8.58
2023-01-13T03:07:46.162Z,8.72
2023-01-13T03:10:50.304Z,8.69
2023-01-13T03:13:35.314Z,8.74
2023-01-13T03:16:25.671Z,8.66
2023-01-13T03:19:00.771Z,8.75
2023-01-13T03:21:42.082Z,8.65
2023-01-13T03:24:20.587Z,8.61
2023-01-13T03:27:22.503Z,8.34
2023-01-13T03:30:00.838Z,8.69
2023-01-13T03:32:34.891Z,8.45
2023-01-13T03:35:10.745Z,8.70
2023-01-13T03:37:41.485Z,8.56
2023-01-13T03:40:22.541Z,8.84
2023-01-13T03:43:14.579Z,8.76
2023-01-13T03:45:43.195Z,8.76
2023-01-13T03:48:16.572Z,8.78
2023-01-13T03:50:50.233Z,8.77
2023-01-13T03:53:31.909Z,8.93
2023-01-13T03:56:03.139Z,8.58
2023-01-13T03:58:35.208Z,8.75
2023-01-13T04:01:14.868Z,8.80
2023-01-13T04:03:41.639Z,8.96
2023-01-13T04:06:47.541Z,8.83
2023-01-13T04:09:26.037Z,8.74
2023-01-13T04:12:00.765Z,8.84
2023-01-13T04:14:29.160Z,8.79
2023-01-13T04:16:56.647Z,8.80
2023-01-13T04:19:23.291Z,8.75
2023-01-13T04:21:53.048Z,8.95
2023-01-13T04:24:19.684Z,8.72
2023-01-13T04:26:46.404Z,8.74
2023-01-13T04:29:15.439Z,8.96
2023-01-13T04:32:08.165Z,8.42
2023-01-13T04:34:38.953Z,8.47
2023-01-13T04:37:05.637Z,8.33
2023-01-13T04:39:40.828Z,8.30
2023-01-13T04:42:10.174Z,8.67
2023-01-13T04:44:48.492Z,8.50
2023-01-13T04:47:25.590Z,8.61
2023-01-13T04:50:08.786Z,8.46
2023-01-13T04:52:37.662Z,8.37
2023-01-13T04:55:09.232Z,8.31
2023-01-13T04:57:37.748Z,8.17
2023-01-13T05:00:15.339Z,8.24
2023-01-13T05:03:10.057Z,8.31
2023-01-13T05:05:38.221Z,8.75
2023-01-13T05:08:05.358Z,8.56
2023-01-13T05:10:32.090Z,8.23
2023-01-13T05:13:16.933Z,8.66
2023-01-13T05:16:06.611Z,8.49
2023-01-13T05:18:41.373Z,8.64
2023-01-13T05:21:28.296Z,8.66
2023-01-13T05:24:13.843Z,8.43
2023-01-13T05:26:40.433Z,8.41
2023-01-13T05:32:47.919Z,8.08
2023-01-13T05:35:16.113Z,7.88
2023-01-13T05:37:46.496Z,8.19
2023-01-13T05:40:33.566Z,7.95
2023-01-13T05:43:20.271Z,7.84
2023-01-13T05:46:12.393Z,7.73
2023-01-13T05:48:51.401Z,7.60
2023-01-13T05:51:27.595Z,7.80
2023-01-13T05:54:02.666Z,7.71
2023-01-13T05:56:29.358Z,7.28
2023-01-13T05:58:55.877Z,7.88
2023-01-13T06:01:22.702Z,7.65
2023-01-13T06:03:57.012Z,7.50
2023-01-13T06:06:26.151Z,7.61
2023-01-13T06:09:24.305Z,7.82
2023-01-13T06:12:13.021Z,7.64
2023-01-13T06:14:42.923Z,7.75
2023-01-13T06:17:52.699Z,8.05
2023-01-13T06:20:19.960Z,7.70
2023-01-13T06:22:49.412Z,7.87
2023-01-13T06:25:46.759Z,8.23
2023-01-13T06:35:13.697Z,7.68
2023-01-13T06:37:43.753Z,7.95
2023-01-13T06:40:22.129Z,8.38
2023-01-13T06:43:12.820Z,8.07
2023-01-13T06:45:43.857Z,8.25
2023-01-13T06:56:41.649Z,8.38
2023-01-13T06:59:08.535Z,8.13
2023-01-13T07:02:18.773Z,8.08
2023-01-13T07:05:00.217Z,8.04
2023-01-13T07:12:08.029Z,8.49
2023-01-13T07:14:57.856Z,8.40
2023-01-13T07:17:25.565Z,8.32
2023-01-13T07:19:58.813Z,8.15
2023-01-13T07:51:55.920Z,7.95
2023-01-13T08:38:03.351Z,8.07
2023-01-13T08:42:26.011Z,8.38
2023-01-13T08:49:49.979Z,8.41
2023-01-13T08:52:17.102Z,8.07
2023-01-13T08:58:45.269Z,8.11
2023-01-13T09:06:40.644Z,8.33
2023-01-13T09:08:26.466Z,8.07
2023-01-13T09:10:53.018Z,7.99
2023-01-13T09:13:21.843Z,8.07
2023-01-13T09:15:49.054Z,8.37
2023-01-13T09:18:18.474Z,8.63
2023-01-13T09:27:56.288Z,8.26
2023-01-13T09:30:23.208Z,8.20
2023-01-13T09:32:49.892Z,8.22
2023-01-13T09:35:19.158Z,8.42
2023-01-13T09:38:42.667Z,8.50
2023-01-13T09:41:54.980Z,8.26
2023-01-13T09:44:43.901Z,8.37
2023-01-13T09:47:36.363Z,8.57
2023-01-13T09:50:20.206Z,8.21
2023-01-13T09:52:49.842Z,8.28
2023-01-13T09:55:25.686Z,8.17
2023-01-13T09:58:02.389Z,8.12
2023-01-13T10:00:44.601Z,8.37
2023-01-13T10:03:27.120Z,8.53
2023-01-13T10:06:00.074Z,8.29
2023-01-13T10:08:35.719Z,8.34
2023-01-13T10:11:23.886Z,8.39
2023-01-13T10:13:55.873Z,8.47
2023-01-13T10:16:44.929Z,8.58
2023-01-13T10:19:37.322Z,8.54
2023-01-13T10:22:24.369Z,8.80
2023-01-13T10:25:34.723Z,8.69
2023-01-13T10:28:27.671Z,8.53
2023-01-13T10:30:54.499Z,8.24
2023-01-13T10:33:39.307Z,8.39
2023-01-13T10:36:11.959Z,8.43
2023-01-13T10:38:43.301Z,8.37
2023-01-13T10:41:18.223Z,8.35
2023-01-13T10:43:45.359Z,8.56
2023-01-13T10:46:16.361Z,8.58
2023-01-13T10:48:55.781Z,8.33
2023-01-13T10:51:30.733Z,8.52
2023-01-13T10:53:59.206Z,8.53
2023-01-13T10:56:29.400Z,8.45
2023-01-13T10:59:16.767Z,8.60
2023-01-13T11:01:58.347Z,8.13
2023-01-13T11:04:28.832Z,8.40
2023-01-13T11:06:56.350Z,8.59
2023-01-13T11:09:25.263Z,8.60
2023-01-13T11:11:55.912Z,8.78
2023-01-13T11:30:40.106Z,8.32
2023-01-13T11:33:15.670Z,8.46
2023-01-13T11:36:10.552Z,8.43
2023-01-13T11:49:39.662Z,8.22
2023-01-13T11:52:23.854Z,8.60
2023-01-13T11:55:28.329Z,8.70
2023-01-13T12:02:08.048Z,8.30
2023-01-13T12:05:35.551Z,8.45
2023-01-13T12:08:04.911Z,8.67
2023-01-13T12:14:41.859Z,8.64
2023-01-13T12:20:42.015Z,8.73
2023-01-13T12:23:26.875Z,8.58
2023-01-13T12:26:29.112Z,8.53
2023-01-13T12:29:04.942Z,8.65
2023-01-13T12:31:37.409Z,8.60
2023-01-13T12:34:06.893Z,8.81
2023-01-13T12:36:58.687Z,9.01
2023-01-13T12:39:51.146Z,8.85
2023-01-13T12:43:03.846Z,9.31
2023-01-13T12:45:34.728Z,9.27
2023-01-13T12:48:01.586Z,9.00
2023-01-13T12:50:53.901Z,9.16
2023-01-13T12:57:26.508Z,9.12
2023-01-13T13:00:14.735Z,9.18
2023-01-13T13:03:04.846Z,8.72
2023-01-13T13:05:57.761Z,8.88
2023-01-13T13:08:44.117Z,8.98
2023-01-13T13:11:32.103Z,8.78
2023-01-13T13:14:19.919Z,8.66
2023-01-13T13:16:52.271Z,8.50
2023-01-13T13:19:37.948Z,8.63
2023-01-13T13:22:13.440Z,8.57
2023-01-13T13:25:04.179Z,8.59
2023-01-13T13:28:03.460Z,8.74
2023-01-13T13:30:41.741Z,8.63
2023-01-13T13:33:47.764Z,8.80
2023-01-13T13:36:48.423Z,8.63
2023-01-13T13:39:40.848Z,8.91
2023-01-13T13:42:46.167Z,8.67
2023-01-13T13:45:45.183Z,8.91
2023-01-13T13:48:27.125Z,8.87
2023-01-13T13:50:58.510Z,8.97
2023-01-13T13:53:40.077Z,8.85
2023-01-13T13:56:19.406Z,8.78
2023-01-13T13:59:13.920Z,8.62
2023-01-13T14:02:08.195Z,8.53
2023-01-13T14:04:46.636Z,8.43
2023-01-13T14:07:20.812Z,8.57
2023-01-13T14:09:54.314Z,8.59
2023-01-13T14:12:23.782Z,8.58
2023-01-13T14:14:51.420Z,8.70
2023-01-13T14:17:29.264Z,8.57
2023-01-13T14:20:04.845Z,8.43
2023-01-13T14:22:32.601Z,8.39
2023-01-13T14:25:01.740Z,8.54
2023-01-13T14:27:29.626Z,8.24
2023-01-13T14:29:58.472Z,8.57
2023-01-13T14:32:32.971Z,8.49
2023-01-13T14:34:59.437Z,8.48
2023-01-13T14:37:28.566Z,8.60
2023-01-13T14:40:32.814Z,8.30
2023-01-13T14:43:14.326Z,8.36
2023-01-13T14:46:03.274Z,8.25
2023-01-13T14:48:36.809Z,8.47
2023-01-13T14:51:10.931Z,8.41
2023-01-13T14:53:46.869Z,8.55
2023-01-13T14:56:40.189Z,8.61
2023-01-13T14:59:48.018Z,8.52
2023-01-13T15:02:29.883Z,8.42
2023-01-13T15:04:58.934Z,8.31
2023-01-13T15:07:31.051Z,8.36
2023-01-13T15:10:05.553Z,8.16
2023-01-13T15:12:43.090Z,8.26
2023-01-13T15:15:30.436Z,8.44
2023-01-13T15:17:59.464Z,8.30
2023-01-13T15:20:27.822Z,8.22
2023-01-13T15:22:55.830Z,8.44
2023-01-13T15:25:22.438Z,8.39
2023-01-13T15:27:51.054Z,8.46
2023-01-13T15:30:26.946Z,8.36
2023-01-13T15:40:03.773Z,8.29
2023-01-13T15:42:48.955Z,8.17
2023-01-13T15:48:54.720Z,8.40
2023-01-13T15:51:21.918Z,8.30
2023-01-13T15:54:02.622Z,8.18
2023-01-13T15:56:29.268Z,8.22
2023-01-13T15:58:56.118Z,8.08
2023-01-13T16:01:23.382Z,8.14
2023-01-13T16:03:50.117Z,8.07
2023-01-13T16:06:20.168Z,8.08
2023-01-13T16:09:21.683Z,7.91
2023-01-13T16:11:48.457Z,8.14
2023-01-13T16:14:14.924Z,8.21
2023-01-13T16:16:41.958Z,8.05
2023-01-13T16:19:10.698Z,8.05
2023-01-13T16:21:51.552Z,7.81
2023-01-13T16:24:18.050Z,8.11
2023-01-13T16:26:44.936Z,8.03
2023-01-13T16:29:12.820Z,7.99
2023-01-13T16:31:39.652Z,7.84
2023-01-13T16:34:09.219Z,8.01
2023-01-13T16:36:37.268Z,7.89
2023-01-13T16:39:42.518Z,8.08
2023-01-13T16:42:09.158Z,7.77
2023-01-13T16:44:36.395Z,7.60
2023-01-13T16:47:15.272Z,7.71
2023-01-13T16:49:44.061Z,7.81
2023-01-13T16:52:28.719Z,7.85
2023-01-13T16:55:04.253Z,7.64
2023-01-13T16:57:30.865Z,7.84
2023-01-13T16:59:57.525Z,8.00
2023-01-13T17:02:35.479Z,7.90
2023-01-13T17:05:02.425Z,7.67
2023-01-13T17:07:28.916Z,7.59
2023-01-13T17:09:55.481Z,7.76
2023-01-13T17:12:22.176Z,7.80
2023-01-13T17:14:48.735Z,7.83
2023-01-13T17:17:54.555Z,7.90
2023-01-13T17:20:19.510Z,7.59
2023-01-13T17:22:49.757Z,7.66
2023-01-13T17:25:21.534Z,7.70
2023-01-13T17:27:48.019Z,7.69
2023-01-13T17:30:14.696Z,7.71
2023-01-13T17:32:41.447Z,7.93
2023-01-13T17:35:08.957Z,7.39
2023-01-13T17:37:35.634Z,7.66
2023-01-13T17:40:02.141Z,7.68
2023-01-13T17:42:29.683Z,7.61
2023-01-13T17:44:56.096Z,7.56
2023-01-13T17:47:24.672Z,7.70
2023-01-13T17:50:15.139Z,7.67
2023-01-13T17:53:17.640Z,7.42
2023-01-13T17:55:54.479Z,7.28
2023-01-13T17:59:02.892Z,7.50
2023-01-13T18:01:40.795Z,7.26
2023-01-13T18:04:16.033Z,7.64
2023-01-13T18:16:23.237Z,7.38
2023-01-13T18:20:01.860Z,7.51
2023-01-13T18:26:15.230Z,7.52
2023-01-13T18:28:47.863Z,7.29
2023-01-13T18:31:14.643Z,7.43
2023-01-13T18:33:41.161Z,7.62
2023-01-13T18:36:13.794Z,7.46
2023-01-13T18:43:16.300Z,7.29
2023-01-13T18:57:40.715Z,7.66
2023-01-13T19:00:14.385Z,7.50
2023-01-13T19:03:17.561Z,7.40
2023-01-13T19:05:52.131Z,7.43
2023-01-13T19:08:18.628Z,7.46
2023-01-13T19:10:48.546Z,7.46
2023-01-13T19:22:48.743Z,7.70
2023-01-13T19:25:26.955Z,7.28
2023-01-13T19:29:00.523Z,7.33
2023-01-13T19:39:27.933Z,7.33
2023-01-13T19:48:59.025Z,7.43
2023-01-13T19:51:29.181Z,7.45
2023-01-13T19:54:24.486Z,7.41
2023-01-13T20:01:19.343Z,7.53
2023-01-13T20:03:46.146Z,7.18
2023-01-13T20:13:15.587Z,7.27
2023-01-13T20:23:12.888Z,7.08
2023-01-13T20:33:30.915Z,7.09
2023-01-13T20:36:37.593Z,7.07
2023-01-13T21:01:46.513Z,7.28
2023-01-13T21:05:30.661Z,7.37
2023-01-13T21:08:09.948Z,6.93
2023-01-13T21:11:15.590Z,6.85
2023-01-13T21:32:15.898Z,6.77
2023-01-13T21:35:49.088Z,6.91
2023-01-13T21:38:39.555Z,6.80
2023-01-13T22:08:15.708Z,7.00
2023-01-13T22:11:35.815Z,6.59
2023-01-13T22:21:33.897Z,6.65
2023-01-13T22:24:02.031Z,7.00
2023-01-13T22:27:01.162Z,6.78
2023-01-13T22:30:00.436Z,6.83
2023-01-13T22:32:53.430Z,6.87
2023-01-13T22:35:20.300Z,6.98
2023-01-13T22:37:47.102Z,6.80
2023-01-13T22:40:56.985Z,7.00
2023-01-13T22:47:41.078Z,7.10
2023-01-13T22:50:09.541Z,7.01
2023-01-13T22:52:39.529Z,6.95
2023-01-13T22:58:18.734Z,7.09
2023-01-13T23:00:46.825Z,6.84
2023-01-13T23:03:13.459Z,6.99
2023-01-13T23:05:40.596Z,6.86
2023-01-13T23:08:07.624Z,7.03
2023-01-13T23:10:34.323Z,7.17
2023-01-13T23:13:00.727Z,7.19
2023-01-13T23:15:27.187Z,6.97
2023-01-13T23:17:53.695Z,7.12
2023-01-13T23:20:20.168Z,6.97
2023-01-13T23:22:46.749Z,6.95
2023-01-13T23:25:13.219Z,6.90
2023-01-13T23:27:39.932Z,6.89
2023-01-13T23:30:11.688Z,7.02
2023-01-13T23:32:38.309Z,6.66
2023-01-13T23:35:05.081Z,6.98
2023-01-13T23:37:31.512Z,7.13
2023-01-13T23:39:57.918Z,7.00
2023-01-13T23:42:24.355Z,6.96
2023-01-13T23:44:50.810Z,7.05
2023-01-13T23:47:17.260Z,7.02
2023-01-13T23:49:45.931Z,7.05
2023-01-13T23:52:12.373Z,6.92
2023-01-13T23:54:38.788Z,7.06
2023-01-13T23:57:05.224Z,6.77
2023-01-13T23:59:31.639Z,6.75
